Time;durP1;ratioP1;P1;durP2;ratioP2;P2;SDS_P1;SDS_P2;PMS_P1;PMS_P2;Temp;Humidity;BMP_temperature;BMP_pressure;BME280_temperature;BME280_humidity;BME280_pressure;Samples;Min_cycle;Max_cycle;Signal;HPM_P1;HPM_P2
2024/01/09 00:00:49;;;;;;;;;;;;;;;3.73;100.00;98793.91;5123119;27;20737;-80
2024/01/09 00:03:14;;;;;;;;;;;;;;;3.73;100.00;98791.97;5118645;27;19922;-80
2024/01/09 00:05:40;;;;;;;;;;;;;;;3.74;100.00;98793.50;5114296;28;20392;-80
2024/01/09 00:08:05;;;;;;;;;;;;;;;3.76;100.00;98795.84;5131598;27;19915;-79
2024/01/09 00:10:30;;;;;;;;;;;;;;;3.72;100.00;98795.06;5140768;27;19955;-80
2024/01/09 00:12:56;;;;;;;;;;;;;;;3.69;100.00;98799.34;5146035;27;19923;-79
2024/01/09 00:15:22;;;;;;;;;;;;;;;3.65;100.00;98804.81;5139417;27;19916;-80
2024/01/09 00:17:47;;;;;;;;;;;;;;;3.72;100.00;98806.78;5115683;27;19915;-80
2024/01/09 00:20:12;;;;;;;;;;;;;;;3.68;100.00;98809.50;5126740;27;19911;-80
2024/01/09 00:22:37;;;;;;;;;;;;;;;3.67;100.00;98812.63;5128713;27;20005;-80
2024/01/09 00:25:03;;;;;;;;;;;;;;;3.73;100.00;98816.56;5127466;27;19911;-80
2024/01/09 00:27:28;;;;;;;;;;;;;;;3.79;100.00;98819.69;5113385;27;19912;-79
2024/01/09 00:29:54;;;;;;;;;;;;;;;3.81;100.00;98822.78;5133692;27;19915;-79
2024/01/09 00:32:19;;;;;;;;;;;;;;;3.92;100.00;98832.56;5119588;27;19912;-80
2024/01/09 00:34:44;;;;;;;;;;;;;;;3.94;100.00;98838.44;5113227;28;20100;-79
2024/01/09 00:37:11;;;;;;;;;;;;;;;4.03;100.00;98835.34;5126905;27;20006;-79
2024/01/09 00:39:36;;;;;;;;;;;;;;;4.13;100.00;98841.97;5133762;27;20002;-80
2024/01/09 00:42:01;;;;;;;;;;;;;;;3.89;100.00;98849.75;5133466;27;20364;-79
2024/01/09 00:44:27;;;;;;;;;;;;;;;3.56;100.00;98848.09;5126123;27;19912;-79
2024/01/09 00:46:52;;;;;;;;;;;;;;;3.36;100.00;98855.06;5114388;28;19912;-79
2024/01/09 00:49:17;;;;;;;;;;;;;;;3.27;100.00;98860.09;5134639;27;19912;-80
2024/01/09 00:51:43;;;;;;;;;;;;;;;3.17;100.00;98863.56;5133631;27;19915;-79
2024/01/09 00:54:08;;;;;;;;;;;;;;;3.11;100.00;98860.44;5119204;27;19947;-79
2024/01/09 00:56:33;;;;;;;;;;;;;;;3.01;100.00;98860.38;5121037;27;19912;-80
2024/01/09 00:58:59;;;;;;;;;;;;;;;2.91;100.00;98856.41;5133221;27;19941;-80
2024/01/09 01:01:24;;;;;;;;;;;;;;;2.75;100.00;98858.66;5133695;27;19918;-80
2024/01/09 01:03:49;;;;;;;;;;;;;;;2.70;100.00;98873.44;5133426;27;20451;-81
2024/01/09 01:06:14;;;;;;;;;;;;;;;2.68;100.00;98878.50;5133014;27;19972;-80
2024/01/09 01:08:40;;;;;;;;;;;;;;;2.65;100.00;98879.22;5133041;27;19934;-80
2024/01/09 01:11:05;;;;;;;;;;;;;;;2.58;100.00;98887.38;5121435;27;19956;-80
2024/01/09 01:13:31;;;;;;;;;;;;;;;2.51;100.00;98889.28;5132580;27;20308;-80
2024/01/09 01:15:56;;;;;;;;;;;;;;;2.43;100.00;98885.69;5133090;27;19911;-79
2024/01/09 01:18:21;;;;;;;;;;;;;;;2.35;100.00;98884.84;5133737;27;19960;-80
2024/01/09 01:20:47;;;;;;;;;;;;;;;2.32;100.00;98882.91;5119979;27;19911;-80
2024/01/09 01:23:14;;;;;;;;;;;;;;;2.42;100.00;98881.41;5132497;27;19915;-80
2024/01/09 01:25:40;;;;;;;;;;;;;;;2.44;100.00;98888.06;5132475;27;19941;-81
2024/01/09 01:28:05;;;;;;;;;;;;;;;2.49;100.00;98889.66;5120060;27;20364;-79
2024/01/09 01:30:30;;;;;;;;;;;;;;;2.49;100.00;98894.31;5133001;27;19912;-80
2024/01/09 01:32:56;;;;;;;;;;;;;;;2.45;100.00;98895.09;5133520;27;19961;-80
2024/01/09 01:35:21;;;;;;;;;;;;;;;2.48;100.00;98893.53;5133901;27;20373;-80
2024/01/09 01:37:46;;;;;;;;;;;;;;;2.52;100.00;98896.31;5132352;27;19911;-80
2024/01/09 01:40:12;;;;;;;;;;;;;;;2.48;100.00;98901.72;5133616;27;19911;-80
2024/01/09 01:42:37;;;;;;;;;;;;;;;2.50;100.00;98895.88;5132049;27;19917;-80
2024/01/09 01:45:13;;;;;;;;;;;;;;;2.55;100.00;98899.03;5133809;27;20018;-80
2024/01/09 01:47:38;;;;;;;;;;;;;;;2.58;100.00;98903.75;5098748;28;19919;-80
2024/01/09 01:50:05;;;;;;;;;;;;;;;2.68;100.00;98896.81;5126526;27;20013;-80
2024/01/09 01:52:30;;;;;;;;;;;;;;;2.80;100.00;98904.69;5132133;27;19962;-80
2024/01/09 01:54:56;;;;;;;;;;;;;;;2.83;100.00;98907.41;5132036;27;19916;-80
2024/01/09 01:57:21;;;;;;;;;;;;;;;2.82;100.00;98913.28;5132434;27;19919;-80
2024/01/09 01:59:46;;;;;;;;;;;;;;;2.80;100.00;98916.38;5132812;27;19912;-81
2024/01/09 02:02:13;;;;;;;;;;;;;;;2.83;100.00;98915.59;5132308;27;19911;-80
2024/01/09 02:04:40;;;;;;;;;;;;;;;2.83;100.00;98915.59;5118012;27;19918;-80
2024/01/09 02:07:06;;;;;;;;;;;;;;;2.89;100.00;98909.81;5118731;27;19917;-80
2024/01/09 02:09:32;;;;;;;;;;;;;;;2.89;100.00;98918.78;5131114;27;19911;-79
2024/01/09 02:11:58;;;;;;;;;;;;;;;2.90;100.00;98923.06;5118971;27;20343;-80
2024/01/09 02:14:23;;;;;;;;;;;;;;;2.90;100.00;98922.28;5131311;27;20356;-80
2024/01/09 02:16:48;;;;;;;;;;;;;;;2.96;100.00;98926.22;5125378;27;19918;-80
2024/01/09 02:19:14;;;;;;;;;;;;;;;2.95;100.00;98924.66;5125224;27;19919;-80
2024/01/09 02:21:39;;;;;;;;;;;;;;;3.00;100.00;98924.31;5133007;27;19911;-80
2024/01/09 02:24:04;;;;;;;;;;;;;;;2.94;100.00;98923.09;5132619;27;19911;-79
2024/01/09 02:26:31;;;;;;;;;;;;;;;2.95;100.00;98936.38;5131175;27;20372;-80
2024/01/09 02:29:00;;;;;;;;;;;;;;;2.91;100.00;98926.56;5131832;27;20303;-81
2024/01/09 02:31:25;;;;;;;;;;;;;;;2.88;100.00;98927.34;5114384;28;19972;-80
2024/01/09 02:33:51;;;;;;;;;;;;;;;2.95;100.00;98933.66;5131543;27;19958;-80
2024/01/09 02:36:17;;;;;;;;;;;;;;;2.91;100.00;98941.00;5131586;27;20007;-79
2024/01/09 02:38:43;;;;;;;;;;;;;;;2.95;100.00;98932.84;5131473;27;19915;-79
2024/01/09 02:41:08;;;;;;;;;;;;;;;2.96;100.00;98924.28;5131701;27;20395;-80
2024/01/09 02:43:33;;;;;;;;;;;;;;;3.02;100.00;98927.44;5131917;27;20007;-80
2024/01/09 02:45:59;;;;;;;;;;;;;;;3.03;100.00;98921.59;5131304;27;19911;-79
2024/01/09 02:48:24;;;;;;;;;;;;;;;3.02;100.00;98919.22;5114630;28;20011;-80
2024/01/09 02:50:49;;;;;;;;;;;;;;;2.97;100.00;98927.78;5131416;27;20010;-80
2024/01/09 02:53:14;;;;;;;;;;;;;;;3.03;100.00;98932.50;5118471;27;19923;-80
2024/01/09 02:55:40;;;;;;;;;;;;;;;3.04;100.00;98925.88;5116955;28;20391;-80
2024/01/09 02:58:05;;;;;;;;;;;;;;;3.05;100.00;98923.94;5120314;27;19922;-80
2024/01/09 03:00:30;;;;;;;;;;;;;;;2.86;100.00;98925.78;5117093;28;19935;-80
2024/01/09 03:02:56;;;;;;;;;;;;;;;2.86;100.00;98927.72;5131362;27;20405;-80
2024/01/09 03:05:21;;;;;;;;;;;;;;;2.99;100.00;98928.97;5132495;27;19918;-80
2024/01/09 03:07:46;;;;;;;;;;;;;;;3.01;100.00;98928.59;5131571;27;20384;-82
2024/01/09 03:10:12;;;;;;;;;;;;;;;3.01;100.00;98936.78;5131689;27;19926;-79
2024/01/09 03:12:37;;;;;;;;;;;;;;;3.01;100.00;98931.34;5131280;27;19986;-79
2024/01/09 03:15:02;;;;;;;;;;;;;;;3.00;100.00;98943.41;5130703;27;19918;-80
2024/01/09 03:17:28;;;;;;;;;;;;;;;3.05;100.00;98951.25;5131812;27;19907;-80
2024/01/09 03:19:53;;;;;;;;;;;;;;;3.09;100.00;98949.31;5119029;27;19911;-80
2024/01/09 03:22:19;;;;;;;;;;;;;;;3.07;100.00;98963.34;5133583;27;20450;-78
2024/01/09 03:24:45;;;;;;;;;;;;;;;3.09;100.00;98966.47;5125053;27;19912;-79
2024/01/09 03:27:10;;;;;;;;;;;;;;;3.12;100.00;98976.66;5134868;27;19981;-79
2024/01/09 03:29:35;;;;;;;;;;;;;;;3.05;100.00;98978.53;5133415;27;19918;-78
2024/01/09 03:32:01;;;;;;;;;;;;;;;3.18;100.00;98979.81;5143433;27;19948;-80
2024/01/09 03:34:26;;;;;;;;;;;;;;;3.13;100.00;98991.88;5134927;27;19955;-80
2024/01/09 03:36:51;;;;;;;;;;;;;;;3.08;100.00;98981.28;5134829;27;19991;-79
2024/01/09 03:39:17;;;;;;;;;;;;;;;3.03;100.00;98981.63;5134336;27;19907;-80
2024/01/09 03:41:42;;;;;;;;;;;;;;;2.92;100.00;98980.78;5134692;27;19929;-80
2024/01/09 03:44:08;;;;;;;;;;;;;;;2.88;100.00;98984.66;5135528;27;20386;-80
2024/01/09 03:46:33;;;;;;;;;;;;;;;2.74;100.00;98986.09;5134760;27;20383;-79
2024/01/09 03:48:58;;;;;;;;;;;;;;;2.70;100.00;98989.97;5133909;27;19917;-80
2024/01/09 03:51:24;;;;;;;;;;;;;;;2.80;100.00;98992.00;5134367;27;19926;-78
2024/01/09 03:53:49;;;;;;;;;;;;;;;2.75;100.00;98986.88;5134619;27;19919;-80
2024/01/09 03:56:14;;;;;;;;;;;;;;;2.68;100.00;98989.53;5134934;27;19911;-80
2024/01/09 03:58:40;;;;;;;;;;;;;;;2.58;100.00;98990.25;5134399;27;19915;-80
2024/01/09 04:01:05;;;;;;;;;;;;;;;2.49;100.00;98990.53;5135654;27;19911;-80
2024/01/09 04:03:30;;;;;;;;;;;;;;;2.41;100.00;99003.31;5130181;27;20347;-80
2024/01/09 04:05:56;;;;;;;;;;;;;;;2.27;100.00;99008.66;5124731;27;20018;-79
2024/01/09 04:08:21;;;;;;;;;;;;;;;2.25;100.00;99021.84;5135217;27;19922;-80
2024/01/09 04:10:46;;;;;;;;;;;;;;;2.18;100.00;99029.16;5134141;27;19922;-80
2024/01/09 04:13:11;;;;;;;;;;;;;;;2.10;100.00;99030.25;5130218;27;20380;-80
2024/01/09 04:15:38;;;;;;;;;;;;;;;2.08;100.00;99036.06;5124574;27;19990;-79
2024/01/09 04:18:03;;;;;;;;;;;;;;;2.00;100.00;99043.38;5130232;27;20308;-79
2024/01/09 04:20:28;;;;;;;;;;;;;;;1.97;100.00;99051.50;5113594;28;19908;-79
2024/01/09 04:22:54;;;;;;;;;;;;;;;1.96;100.00;99052.66;5131220;27;20148;-80
2024/01/09 04:25:19;;;;;;;;;;;;;;;2.00;100.00;99053.47;5133607;27;19918;-80
2024/01/09 04:27:44;;;;;;;;;;;;;;;1.97;100.00;99054.22;5135060;27;19919;-80
2024/01/09 04:30:10;;;;;;;;;;;;;;;1.87;100.00;99052.94;5124169;27;19911;-80
2024/01/09 04:32:35;;;;;;;;;;;;;;;1.78;100.00;99043.47;5113244;28;19916;-80
2024/01/09 04:35:01;;;;;;;;;;;;;;;1.79;100.00;99047.78;5123066;27;20391;-80
2024/01/09 04:37:26;;;;;;;;;;;;;;;1.81;100.00;99054.41;5130127;27;21240;-80
2024/01/09 04:39:51;;;;;;;;;;;;;;;1.72;100.00;99058.56;5113334;28;19918;-82
2024/01/09 04:42:17;;;;;;;;;;;;;;;1.70;100.00;99069.03;5115864;27;19951;-80
2024/01/09 04:44:42;;;;;;;;;;;;;;;1.66;100.00;99069.00;5123959;27;20010;-80
2024/01/09 04:47:07;;;;;;;;;;;;;;;1.69;100.00;99067.50;5116829;27;20373;-79
2024/01/09 04:49:32;;;;;;;;;;;;;;;1.52;100.00;99085.13;5133586;27;19911;-80
2024/01/09 04:51:58;;;;;;;;;;;;;;;1.43;100.00;99098.22;5133235;27;19922;-80
2024/01/09 04:54:23;;;;;;;;;;;;;;;1.37;100.00;99096.97;5134608;27;19915;-80
2024/01/09 04:56:48;;;;;;;;;;;;;;;1.35;100.00;99101.97;5133501;27;19995;-79
2024/01/09 04:59:15;;;;;;;;;;;;;;;1.26;100.00;99102.25;5124192;27;19915;-79
2024/01/09 05:01:40;;;;;;;;;;;;;;;1.25;100.00;99106.13;5125861;27;19907;-80
2024/01/09 05:04:05;;;;;;;;;;;;;;;1.32;100.00;99110.88;5112999;28;19912;-80
2024/01/09 05:06:30;;;;;;;;;;;;;;;1.42;100.00;99110.25;5114973;27;19908;-81
2024/01/09 05:08:56;;;;;;;;;;;;;;;1.48;100.00;99125.13;5132937;27;19919;-81
2024/01/09 05:11:21;;;;;;;;;;;;;;;1.34;100.00;99119.44;5131203;27;19960;-79
2024/01/09 05:13:47;;;;;;;;;;;;;;;1.31;100.00;99126.44;5122544;27;19912;-79
2024/01/09 05:16:12;;;;;;;;;;;;;;;1.26;100.00;99134.91;5117177;27;19907;-80
2024/01/09 05:18:37;;;;;;;;;;;;;;;1.28;100.00;99132.59;5120350;27;20019;-79
2024/01/09 05:21:03;;;;;;;;;;;;;;;1.22;100.00;99143.00;5132455;27;19907;-80
2024/01/09 05:23:28;;;;;;;;;;;;;;;1.18;100.00;99157.69;5132817;27;20005;-80
2024/01/09 05:25:53;;;;;;;;;;;;;;;1.11;100.00;99168.44;5132569;27;19912;-79
2024/01/09 05:28:19;;;;;;;;;;;;;;;1.02;100.00;99176.06;5125632;27;19947;-80
2024/01/09 05:30:44;;;;;;;;;;;;;;;1.05;100.00;99178.84;5113228;28;19916;-80
2024/01/09 05:33:09;;;;;;;;;;;;;;;1.05;100.00;99172.63;5133078;27;19911;-80
2024/01/09 05:35:35;;;;;;;;;;;;;;;0.87;100.00;99182.38;5133238;27;19915;-81
2024/01/09 05:38:00;;;;;;;;;;;;;;;0.92;100.00;99191.03;5119273;27;19922;-81
2024/01/09 05:40:25;;;;;;;;;;;;;;;0.89;100.00;99196.41;5118532;27;19945;-80
2024/01/09 05:42:51;;;;;;;;;;;;;;;0.81;100.00;99201.72;5130222;27;20312;-80
2024/01/09 05:45:16;;;;;;;;;;;;;;;0.87;100.00;99187.81;5112938;28;20327;-80
2024/01/09 05:47:42;;;;;;;;;;;;;;;0.82;100.00;99206.03;5114277;28;19937;-79
2024/01/09 05:50:08;;;;;;;;;;;;;;;0.70;100.00;99210.81;5112640;28;19915;-80
2024/01/09 05:52:36;;;;;;;;;;;;;;;0.75;100.00;99211.31;5114917;28;19927;-80
2024/01/09 05:55:02;;;;;;;;;;;;;;;0.81;100.00;99211.81;5112520;28;20391;-80
2024/01/09 05:57:28;;;;;;;;;;;;;;;0.62;100.00;99204.44;5112768;28;19968;-79
2024/01/09 05:59:53;;;;;;;;;;;;;;;0.60;100.00;99216.84;5112828;28;20007;-79
2024/01/09 06:02:19;;;;;;;;;;;;;;;0.65;100.00;99213.81;5112578;28;19967;-79
2024/01/09 06:04:44;;;;;;;;;;;;;;;0.65;100.00;99220.06;5112793;28;19912;-79
2024/01/09 06:07:10;;;;;;;;;;;;;;;0.66;100.00;99229.75;5113004;28;19919;-81
2024/01/09 06:09:35;;;;;;;;;;;;;;;0.53;100.00;99225.63;5112731;28;19912;-80
2024/01/09 06:12:00;;;;;;;;;;;;;;;0.62;100.00;99233.56;5113994;28;20343;-80
2024/01/09 06:14:26;;;;;;;;;;;;;;;0.54;100.00;99227.22;5114257;28;19919;-80
2024/01/09 06:16:51;;;;;;;;;;;;;;;0.54;100.00;99240.81;5112553;28;19912;-80
2024/01/09 06:19:16;;;;;;;;;;;;;;;0.55;100.00;99236.91;5113316;28;19999;-80
2024/01/09 06:21:42;;;;;;;;;;;;;;;0.51;100.00;99249.66;5112562;28;19915;-81
2024/01/09 06:24:07;;;;;;;;;;;;;;;0.43;100.00;99261.50;5112986;28;19968;-79
2024/01/09 06:26:32;;;;;;;;;;;;;;;0.38;100.00;99264.50;5112871;28;19916;-79
2024/01/09 06:28:58;;;;;;;;;;;;;;;0.40;100.00;99273.09;5113257;28;19998;-80
2024/01/09 06:31:23;;;;;;;;;;;;;;;0.35;100.00;99276.09;5113041;28;19912;-80
2024/01/09 06:33:48;;;;;;;;;;;;;;;0.34;100.00;99280.75;5112908;28;19912;-78
2024/01/09 06:36:13;;;;;;;;;;;;;;;0.35;100.00;99286.97;5112682;28;19912;-80
2024/01/09 06:38:39;;;;;;;;;;;;;;;0.39;100.00;99301.41;5113296;28;19912;-80
2024/01/09 06:41:04;;;;;;;;;;;;;;;0.37;100.00;99301.75;5114435;28;20058;-79
2024/01/09 06:43:30;;;;;;;;;;;;;;;0.42;100.00;99305.38;5116638;28;19993;-79
2024/01/09 06:45:55;;;;;;;;;;;;;;;0.39;100.00;99317.72;5123882;28;20356;-78
2024/01/09 06:48:21;;;;;;;;;;;;;;;0.50;100.00;99316.03;5138755;27;20407;-79
2024/01/09 06:50:46;;;;;;;;;;;;;;;0.47;100.00;99319.47;5133081;27;19911;-79
2024/01/09 06:53:11;;;;;;;;;;;;;;;0.45;100.00;99319.03;5131582;27;20372;-79
2024/01/09 06:55:37;;;;;;;;;;;;;;;0.47;100.00;99327.63;5130746;27;19911;-78
2024/01/09 06:58:03;;;;;;;;;;;;;;;0.55;100.00;99334.78;5130798;27;19919;-79
2024/01/09 07:00:28;;;;;;;;;;;;;;;0.55;100.00;99342.16;5130898;27;19942;-79
2024/01/09 07:02:54;;;;;;;;;;;;;;;0.56;100.00;99341.81;5134310;27;19907;-79
2024/01/09 07:05:19;;;;;;;;;;;;;;;0.77;100.00;99347.72;5133915;27;20001;-79
2024/01/09 07:07:44;;;;;;;;;;;;;;;0.73;100.00;99344.13;5136123;27;19967;-79
2024/01/09 07:10:10;;;;;;;;;;;;;;;0.80;100.00;99355.16;5130978;27;19911;-79
2024/01/09 07:12:35;;;;;;;;;;;;;;;0.89;100.00;99352.25;5114479;28;19911;-79
2024/01/09 07:15:00;;;;;;;;;;;;;;;0.98;100.00;99357.47;5132776;27;20376;-79
2024/01/09 07:17:26;;;;;;;;;;;;;;;0.98;100.00;99352.81;5134196;27;19919;-80
2024/01/09 07:19:52;;;;;;;;;;;;;;;1.03;100.00;99347.09;5134105;27;20299;-80
2024/01/09 07:22:17;;;;;;;;;;;;;;;1.13;100.00;99341.09;5123319;27;20411;-79
2024/01/09 07:24:43;;;;;;;;;;;;;;;1.19;100.00;99347.06;5129872;27;20006;-78
2024/01/09 07:27:08;;;;;;;;;;;;;;;1.21;100.00;99342.00;5134903;27;19913;-79
2024/01/09 07:29:33;;;;;;;;;;;;;;;1.22;100.00;99351.75;5134152;27;20371;-81
2024/01/09 07:31:59;;;;;;;;;;;;;;;1.16;100.00;99358.63;5134573;27;19907;-78
2024/01/09 07:34:24;;;;;;;;;;;;;;;1.00;100.00;99360.63;5135665;27;20601;-79
2024/01/09 07:36:49;;;;;;;;;;;;;;;1.01;100.00;99362.22;5136190;27;19918;-79
2024/01/09 07:39:15;;;;;;;;;;;;;;;0.95;100.00;99363.66;5132841;27;20383;-78
2024/01/09 07:41:40;;;;;;;;;;;;;;;0.98;100.00;99365.63;5123241;27;19907;-80
2024/01/09 07:44:06;;;;;;;;;;;;;;;0.91;100.00;99371.72;5135496;27;19907;-79
2024/01/09 07:46:32;;;;;;;;;;;;;;;0.81;100.00;99378.50;5135371;27;19908;-79
2024/01/09 07:48:57;;;;;;;;;;;;;;;0.81;100.00;99380.44;5134513;27;19918;-79
2024/01/09 07:51:23;;;;;;;;;;;;;;;0.88;100.00;99383.31;5122911;27;19960;-80
2024/01/09 07:53:48;;;;;;;;;;;;;;;0.86;100.00;99388.31;5121348;27;19930;-79
2024/01/09 07:56:14;;;;;;;;;;;;;;;0.84;100.00;99395.28;5135903;27;19918;-79
2024/01/09 07:58:39;;;;;;;;;;;;;;;0.87;100.00;99398.06;5134626;27;19921;-80
2024/01/09 08:01:05;;;;;;;;;;;;;;;0.80;100.00;99393.25;5133166;27;19915;-81
2024/01/09 08:03:30;;;;;;;;;;;;;;;0.74;100.00;99391.94;5120239;27;20400;-79
2024/01/09 08:05:55;;;;;;;;;;;;;;;0.76;100.00;99397.81;5117495;27;19930;-79
2024/01/09 08:08:21;;;;;;;;;;;;;;;0.75;100.00;99398.16;5111764;27;20357;-80
2024/01/09 08:10:46;;;;;;;;;;;;;;;0.70;100.00;99401.97;5119208;27;20383;-80
2024/01/09 08:13:11;;;;;;;;;;;;;;;0.72;100.00;99396.94;5118721;27;19923;-81
2024/01/09 08:15:37;;;;;;;;;;;;;;;0.58;100.00;99391.19;5127427;27;20492;-81
2024/01/09 08:18:02;;;;;;;;;;;;;;;0.56;100.00;99398.09;5134027;27;19958;-80
2024/01/09 08:20:28;;;;;;;;;;;;;;;0.60;100.00;99391.63;5134101;27;19941;-79
2024/01/09 08:22:54;;;;;;;;;;;;;;;0.60;100.00;99396.28;5134281;27;20017;-80
2024/01/09 08:25:19;;;;;;;;;;;;;;;0.57;100.00;99405.91;5134649;27;19969;-79
2024/01/09 08:27:44;;;;;;;;;;;;;;;0.61;100.00;99404.06;5135212;27;20357;-80
2024/01/09 08:30:10;;;;;;;;;;;;;;;0.70;100.00;99412.84;5135878;27;19918;-80
2024/01/09 08:32:37;;;;;;;;;;;;;;;0.58;100.00;99412.16;5127384;27;19923;-79
2024/01/09 08:35:02;;;;;;;;;;;;;;;0.59;100.00;99409.09;5126901;27;19971;-80
2024/01/09 08:37:28;;;;;;;;;;;;;;;0.71;100.00;99408.19;5119410;27;19911;-80
2024/01/09 08:39:53;;;;;;;;;;;;;;;0.85;100.00;99411.22;5133174;27;19907;-79
2024/01/09 08:42:19;;;;;;;;;;;;;;;0.90;100.00;99404.72;5131857;27;19943;-79
2024/01/09 08:44:44;;;;;;;;;;;;;;;0.98;100.00;99411.88;5119020;27;20114;-81
2024/01/09 08:47:10;;;;;;;;;;;;;;;1.09;100.00;99412.91;5130828;27;20380;-80
2024/01/09 08:49:36;;;;;;;;;;;;;;;0.92;100.00;99416.81;5133026;27;19987;-82
2024/01/09 08:52:01;;;;;;;;;;;;;;;1.02;100.00;99424.44;5130980;27;19930;-80
2024/01/09 08:54:26;;;;;;;;;;;;;;;0.93;100.00;99425.78;5131699;27;20473;-79
2024/01/09 08:56:51;;;;;;;;;;;;;;;1.01;100.00;99424.78;5131328;27;19929;-85
2024/01/09 08:59:17;;;;;;;;;;;;;;;1.02;100.00;99423.66;5132260;27;19914;-80
2024/01/09 09:01:42;;;;;;;;;;;;;;;0.96;100.00;99433.25;5134081;27;19907;-79
2024/01/09 09:04:07;;;;;;;;;;;;;;;1.00;100.00;99431.38;5134066;27;20386;-79
2024/01/09 09:06:33;;;;;;;;;;;;;;;1.04;100.00;99430.31;5133360;27;20395;-81
2024/01/09 09:08:58;;;;;;;;;;;;;;;0.92;100.00;99435.84;5128243;27;19937;-81
2024/01/09 09:11:24;;;;;;;;;;;;;;;0.82;100.00;99426.31;5116588;27;19912;-79
2024/01/09 09:13:49;;;;;;;;;;;;;;;0.77;100.00;99426.59;5124531;27;19919;-79
2024/01/09 09:16:15;;;;;;;;;;;;;;;0.63;100.00;99428.97;5132880;27;20403;-79
2024/01/09 09:18:41;;;;;;;;;;;;;;;0.67;100.00;99424.41;5133551;27;20368;-80
2024/01/09 09:21:07;;;;;;;;;;;;;;;0.69;100.00;99426.78;5131122;27;19913;-79
2024/01/09 09:23:33;;;;;;;;;;;;;;;0.59;100.00;99417.25;5112088;28;20327;-80
2024/01/09 09:25:58;;;;;;;;;;;;;;;0.70;100.00;99417.47;5125439;27;19928;-80
2024/01/09 09:28:23;;;;;;;;;;;;;;;0.63;100.00;99415.38;5113569;28;19994;-82
2024/01/09 09:30:49;;;;;;;;;;;;;;;0.60;100.00;99409.88;5124651;27;20300;-79
2024/01/09 09:33:14;;;;;;;;;;;;;;;0.60;100.00;99410.66;5120331;27;19919;-79
2024/01/09 09:35:40;;;;;;;;;;;;;;;0.52;100.00;99417.06;5130345;27;20424;-81
2024/01/09 09:38:05;;;;;;;;;;;;;;;0.65;100.00;99420.47;5122901;27;20002;-81
2024/01/09 09:40:30;;;;;;;;;;;;;;;0.53;100.00;99418.66;5122819;27;20002;-81
2024/01/09 09:42:58;;;;;;;;;;;;;;;0.55;100.00;99421.78;5119655;27;19907;-79
2024/01/09 09:45:25;;;;;;;;;;;;;;;0.63;100.00;99407.22;5131678;27;19953;-79
2024/01/09 09:47:52;;;;;;;;;;;;;;;0.71;100.00;99419.06;5132357;27;19907;-78
2024/01/09 09:50:18;;;;;;;;;;;;;;;0.66;100.00;99422.81;5132153;27;20284;-79
2024/01/09 09:52:43;;;;;;;;;;;;;;;0.63;100.00;99422.75;5123684;27;19920;-79
2024/01/09 09:55:09;;;;;;;;;;;;;;;0.55;100.00;99423.72;5125721;27;19911;-79
2024/01/09 09:57:35;;;;;;;;;;;;;;;0.49;100.00;99423.19;5113517;28;20392;-79
2024/01/09 10:00:00;;;;;;;;;;;;;;;0.43;100.00;99419.16;5115535;27;19985;-79
2024/01/09 10:02:28;;;;;;;;;;;;;;;0.40;100.00;99419.88;5132252;27;19950;-81
2024/01/09 10:04:55;;;;;;;;;;;;;;;0.23;100.00;99406.63;5137059;27;19911;-80
2024/01/09 10:07:21;;;;;;;;;;;;;;;0.18;100.00;99415.06;5132434;27;19960;-81
2024/01/09 10:09:53;;;;;;;;;;;;;;;0.13;100.00;99420.72;5131599;27;20368;-79
2024/01/09 10:12:22;;;;;;;;;;;;;;;0.22;100.00;99413.22;5131665;27;19960;-80
2024/01/09 10:15:03;;;;;;;;;;;;;;;0.23;100.00;99410.16;5128779;27;19970;-79
2024/01/09 10:17:28;;;;;;;;;;;;;;;0.34;100.00;99410.41;5123005;27;20445;-79
2024/01/09 10:19:53;;;;;;;;;;;;;;;0.22;100.00;99419.44;5131620;27;19912;-80
2024/01/09 10:22:20;;;;;;;;;;;;;;;0.18;100.00;99423.22;5131495;27;19958;-79
2024/01/09 10:24:45;;;;;;;;;;;;;;;0.18;100.00;99421.25;5117386;27;19946;-79
2024/01/09 10:27:11;;;;;;;;;;;;;;;0.30;100.00;99412.25;5121328;27;19950;-80
2024/01/09 10:29:42;;;;;;;;;;;;;;;0.34;100.00;99411.19;5110935;28;19915;-81
2024/01/09 10:32:08;;;;;;;;;;;;;;;0.32;100.00;99407.25;5124224;28;20376;-80
2024/01/09 10:34:34;;;;;;;;;;;;;;;0.35;100.00;99404.63;5126819;27;19964;-80
2024/01/09 10:37:06;;;;;;;;;;;;;;;0.32;100.00;99397.16;5126795;27;19911;-80
2024/01/09 10:39:32;;;;;;;;;;;;;;;0.42;100.00;99403.22;5135247;27;19925;-82
2024/01/09 10:42:03;;;;;;;;;;;;;;;0.45;100.00;99413.38;5135660;27;19912;-80
2024/01/09 10:44:28;;;;;;;;;;;;;;;0.32;100.00;99413.47;5135804;27;19964;-81
2024/01/09 10:46:54;;;;;;;;;;;;;;;0.28;100.00;99422.69;5136165;27;19907;-81
2024/01/09 10:49:20;;;;;;;;;;;;;;;0.20;100.00;99438.00;5123357;27;19911;-79
2024/01/09 10:51:48;;;;;;;;;;;;;;;0.21;100.00;99431.44;5120881;27;19931;-81
2024/01/09 10:54:15;;;;;;;;;;;;;;;0.20;100.00;99426.34;5122976;27;19923;-80
2024/01/09 10:56:40;;;;;;;;;;;;;;;-0.16;100.00;99381.97;5120963;27;19912;-80
2024/01/09 10:59:11;;;;;;;;;;;;;;;0.13;100.00;99443.25;5135005;27;19911;-80
2024/01/09 11:01:36;;;;;;;;;;;;;;;0.05;100.00;99444.22;5136138;27;19919;-80
2024/01/09 11:04:01;;;;;;;;;;;;;;;0.02;100.00;99439.47;5135658;27;20052;-81
2024/01/09 11:06:27;;;;;;;;;;;;;;;0.01;100.00;99443.31;5134963;27;20308;-81
2024/01/09 11:08:58;;;;;;;;;;;;;;;0.09;100.00;99452.44;5126368;27;19908;-80
2024/01/09 11:11:24;;;;;;;;;;;;;;;0.12;100.00;99457.97;5114720;28;19975;-81
2024/01/09 11:13:51;;;;;;;;;;;;;;;0.00;100.00;99466.22;5123759;27;19943;-81
2024/01/09 11:16:17;;;;;;;;;;;;;;;-0.14;100.00;99461.19;5119824;27;20007;-80
2024/01/09 11:18:44;;;;;;;;;;;;;;;-0.11;100.00;99468.63;5125663;27;20300;-81
2024/01/09 11:21:11;;;;;;;;;;;;;;;-0.19;100.00;99464.16;5134822;27;19918;-80
2024/01/09 11:23:42;;;;;;;;;;;;;;;-0.20;100.00;99468.00;5130094;27;19964;-80
2024/01/09 11:26:08;;;;;;;;;;;;;;;-0.24;100.00;99471.75;5135442;27;19909;-80
2024/01/09 11:28:37;;;;;;;;;;;;;;;-0.36;100.00;99475.28;5121013;27;19919;-80
2024/01/09 11:31:06;;;;;;;;;;;;;;;-0.23;100.00;99478.75;5113845;28;19938;-80
2024/01/09 11:33:32;;;;;;;;;;;;;;;-0.18;100.00;99473.09;5125838;27;19911;-79
2024/01/09 11:36:06;;;;;;;;;;;;;;;-0.18;100.00;99473.84;5128896;27;19918;-80
2024/01/09 11:38:32;;;;;;;;;;;;;;;-0.38;100.00;99480.28;5123172;27;19912;-80
2024/01/09 11:41:02;;;;;;;;;;;;;;;-0.26;100.00;99487.59;5114410;27;19907;-79
2024/01/09 11:43:27;;;;;;;;;;;;;;;-0.19;100.00;99487.78;5133999;27;19930;-80
2024/01/09 11:45:53;;;;;;;;;;;;;;;-0.30;100.00;99494.84;5128914;27;20693;-80
2024/01/09 11:48:18;;;;;;;;;;;;;;;-0.31;100.00;99496.78;5126707;27;19912;-79
2024/01/09 11:50:43;;;;;;;;;;;;;;;-0.22;100.00;99508.28;5116406;28;20368;-79
2024/01/09 11:53:09;;;;;;;;;;;;;;;-0.21;100.00;99501.72;5133527;27;19923;-81
2024/01/09 11:55:34;;;;;;;;;;;;;;;-0.35;100.00;99497.78;5119923;27;19911;-81
2024/01/09 11:58:00;;;;;;;;;;;;;;;-0.38;100.00;99510.13;5115775;27;19923;-80
2024/01/09 12:00:25;;;;;;;;;;;;;;;-0.55;100.00;99510.41;5121740;27;19927;-80
2024/01/09 12:02:50;;;;;;;;;;;;;;;-0.60;100.00;99519.56;5118509;27;20048;-80
2024/01/09 12:05:16;;;;;;;;;;;;;;;-0.50;100.00;99519.09;5131989;27;19907;-78
2024/01/09 12:07:41;;;;;;;;;;;;;;;-0.49;100.00;99519.91;5125530;27;19951;-80
2024/01/09 12:10:08;;;;;;;;;;;;;;;-0.50;100.00;99515.59;5110433;27;19957;-78
2024/01/09 12:12:34;;;;;;;;;;;;;;;-0.38;100.00;99528.34;5111247;28;19919;-78
2024/01/09 12:15:00;;;;;;;;;;;;;;;-0.38;100.00;99529.13;5118829;27;19919;-79
2024/01/09 12:17:41;;;;;;;;;;;;;;;-0.39;100.00;99532.97;5122757;27;19923;-80
2024/01/09 12:20:07;;;;;;;;;;;;;;;-0.36;100.00;99534.25;5133062;27;20284;-79
2024/01/09 12:22:35;;;;;;;;;;;;;;;-0.31;100.00;99537.50;5130870;27;19916;-79
2024/01/09 12:25:01;;;;;;;;;;;;;;;-0.26;100.00;99542.69;5100980;28;19907;-80
2024/01/09 12:27:27;;;;;;;;;;;;;;;-0.32;100.00;99546.78;5114719;27;20002;-80
2024/01/09 12:29:52;;;;;;;;;;;;;;;-0.31;100.00;99542.13;5122798;27;20399;-79
2024/01/09 12:32:18;;;;;;;;;;;;;;;-0.33;100.00;99545.19;5126077;27;19920;-81
2024/01/09 12:34:45;;;;;;;;;;;;;;;-0.35;100.00;99554.78;5115371;27;19916;-79
2024/01/09 12:37:11;;;;;;;;;;;;;;;-0.32;100.00;99560.34;5102924;27;20010;-80